createdAt,value
2022-08-18T00:00:01.445Z,100316.03
2022-08-18T00:02:30.583Z,100307.56
2022-08-18T00:05:00.204Z,100315.28
2022-08-18T00:07:32.184Z,100308.50
2022-08-18T00:10:01.407Z,100308.41
2022-08-18T00:12:57.074Z,100307.59
2022-08-18T00:15:26.680Z,100306.00
2022-08-18T00:17:54.452Z,100312.78
2022-08-18T00:20:24.428Z,100304.28
2022-08-18T00:22:52.807Z,100305.88
2022-08-18T00:25:22.270Z,100315.19
2022-08-18T00:27:50.155Z,100316.38
2022-08-18T00:30:20.359Z,100327.59
2022-08-18T00:32:52.146Z,100321.97
2022-08-18T00:35:33.962Z,100329.16
2022-08-18T00:38:05.631Z,100331.44
2022-08-18T00:40:41.915Z,100341.06
2022-08-18T00:43:25.308Z,100345.84
2022-08-18T00:45:53.218Z,100348.47
2022-08-18T00:48:23.829Z,100342.94
2022-08-18T00:50:56.001Z,100351.25
2022-08-18T00:53:52.083Z,100349.06
2022-08-18T00:56:29.184Z,100342.69
2022-08-18T00:59:31.219Z,100347.00
2022-08-18T01:02:04.028Z,100337.75
2022-08-18T01:04:42.182Z,100331.88
2022-08-18T01:07:34.119Z,100331.13
2022-08-18T01:10:04.745Z,100340.00
2022-08-18T01:12:45.038Z,100346.81
2022-08-18T01:15:27.769Z,100336.31
2022-08-18T01:18:41.205Z,100342.69
2022-08-18T01:21:39.645Z,100349.53
2022-08-18T01:24:09.308Z,100346.28
2022-08-18T01:26:44.238Z,100346.63
2022-08-18T01:29:19.150Z,100342.50
2022-08-18T01:31:55.501Z,100336.84
2022-08-18T01:34:27.423Z,100335.28
2022-08-18T01:36:55.986Z,100332.91
2022-08-18T01:41:23.961Z,100338.56
2022-08-18T01:42:20.309Z,100328.50
2022-08-18T01:44:51.087Z,100344.97
2022-08-18T01:47:19.966Z,100347.28
2022-08-18T01:49:47.718Z,100338.78
2022-08-18T01:52:21.838Z,100341.50
2022-08-18T01:54:51.787Z,100345.53
2022-08-18T01:57:21.454Z,100339.94
2022-08-18T01:59:53.706Z,100340.72
2022-08-18T02:02:25.850Z,100331.09
2022-08-18T02:05:01.493Z,100327.53
2022-08-18T02:07:35.025Z,100335.16
2022-08-18T02:10:10.330Z,100337.53
2022-08-18T02:12:41.447Z,100336.78
2022-08-18T02:15:10.954Z,100334.41
2022-08-18T02:17:41.453Z,100337.13
2022-08-18T02:20:15.008Z,100330.84
2022-08-18T02:22:43.470Z,100324.41
2022-08-18T02:25:11.837Z,100332.88
2022-08-18T02:27:39.551Z,100333.63
2022-08-18T02:30:11.177Z,100333.63
2022-08-18T02:32:39.062Z,100329.25
2022-08-18T02:35:08.884Z,100330.44
2022-08-18T02:37:47.750Z,100336.78
2022-08-18T02:40:17.390Z,100332.66
2022-08-18T02:42:46.893Z,100334.78
2022-08-18T02:45:14.827Z,100340.97
2022-08-18T02:47:49.174Z,100337.34
2022-08-18T02:50:17.019Z,100333.66
2022-08-18T02:52:44.834Z,100341.28
2022-08-18T02:55:13.354Z,100348.53
2022-08-18T02:57:45.834Z,100353.69
2022-08-18T03:00:16.536Z,100353.25
2022-08-18T03:02:52.000Z,100355.19
2022-08-18T03:05:22.790Z,100350.66
2022-08-18T03:07:51.037Z,100350.69
2022-08-18T03:10:31.787Z,100353.84
2022-08-18T03:13:02.267Z,100345.78
2022-08-18T03:15:30.075Z,100337.94
2022-08-18T03:17:58.114Z,100334.41
2022-08-18T03:20:30.907Z,100342.41
2022-08-18T03:23:09.597Z,100335.97
2022-08-18T03:25:47.573Z,100339.13
2022-08-18T03:28:16.895Z,100344.72
2022-08-18T03:30:44.791Z,100340.75
2022-08-18T03:33:12.783Z,100344.78
2022-08-18T03:36:06.844Z,100353.56
2022-08-18T03:38:34.891Z,100349.59
2022-08-18T03:41:02.661Z,100350.84
2022-08-18T03:43:50.824Z,100350.94
2022-08-18T03:46:22.123Z,100354.16
2022-08-18T03:48:50.532Z,100349.03
2022-08-18T03:51:26.657Z,100355.44
2022-08-18T03:53:59.350Z,100355.88
2022-08-18T03:56:34.626Z,100354.59
2022-08-18T03:59:28.141Z,100363.09
2022-08-18T04:01:56.981Z,100363.00
2022-08-18T04:04:51.365Z,100361.91
2022-08-18T04:07:21.247Z,100356.69
2022-08-18T04:09:53.658Z,100353.97
2022-08-18T04:12:21.811Z,100361.63
2022-08-18T04:14:50.284Z,100362.41
2022-08-18T04:17:24.895Z,100358.50
2022-08-18T04:19:54.095Z,100351.03
2022-08-18T04:22:23.023Z,100349.78
2022-08-18T04:24:51.591Z,100360.00
2022-08-18T04:27:22.419Z,100357.81
2022-08-18T04:29:50.229Z,100366.69
2022-08-18T04:32:19.312Z,100360.75
2022-08-18T04:34:47.040Z,100358.31
2022-08-18T04:37:15.501Z,100366.03
2022-08-18T04:39:44.306Z,100374.63
2022-08-18T04:42:12.115Z,100368.63
2022-08-18T04:44:44.843Z,100371.22
2022-08-18T04:47:13.180Z,100367.03
2022-08-18T04:49:41.134Z,100365.09
2022-08-18T04:52:40.645Z,100352.59
2022-08-18T04:55:10.587Z,100359.91
2022-08-18T04:57:38.944Z,100360.78
2022-08-18T05:00:08.411Z,100362.38
2022-08-18T05:02:36.212Z,100359.69
2022-08-18T05:05:05.651Z,100358.88
2022-08-18T05:07:33.646Z,100363.63
2022-08-18T05:10:01.661Z,100370.38
2022-08-18T05:12:29.581Z,68092.72
2022-08-18T05:14:57.700Z,68092.72
2022-08-18T05:17:30.044Z,68092.72
2022-08-18T05:20:04.027Z,68092.72
2022-08-18T05:22:39.159Z,68092.72
2022-08-18T05:25:10.378Z,68092.72
2022-08-18T05:27:42.942Z,68092.72
2022-08-18T05:30:11.534Z,68092.72
2022-08-18T05:32:48.602Z,68092.72
2022-08-18T05:35:26.642Z,68092.72
2022-08-18T05:38:15.847Z,68092.72
2022-08-18T05:40:46.000Z,68092.72
2022-08-18T05:43:15.171Z,68092.72
2022-08-18T05:45:43.317Z,68092.72
2022-08-18T05:48:11.117Z,68092.72
2022-08-18T05:50:38.879Z,68092.72
2022-08-18T05:53:13.549Z,68092.72
2022-08-18T05:56:21.852Z,68092.72
2022-08-18T05:58:51.970Z,68092.72
2022-08-18T06:01:33.781Z,100370.38
2022-08-18T06:04:07.216Z,100381.56
2022-08-18T06:06:36.925Z,100382.19
2022-08-18T06:09:17.798Z,100387.91
2022-08-18T06:11:45.768Z,68092.72
2022-08-18T06:14:13.728Z,68092.72
2022-08-18T06:17:35.124Z,68092.72
2022-08-18T06:20:31.621Z,68092.72
2022-08-18T06:23:21.393Z,68092.72
2022-08-18T06:26:34.799Z,90451.03
2022-08-18T06:29:21.589Z,68092.72
2022-08-18T06:32:07.406Z,68092.72
2022-08-18T06:34:59.260Z,68092.72
2022-08-18T06:37:56.928Z,68092.72
2022-08-18T06:40:24.677Z,68092.72
2022-08-18T06:42:52.431Z,68092.72
2022-08-18T06:45:33.824Z,68092.72
2022-08-18T06:48:33.138Z,68092.72
2022-08-18T06:51:04.112Z,68092.72
2022-08-18T06:53:57.946Z,68092.72
2022-08-18T06:56:28.571Z,100387.91
2022-08-18T06:59:31.702Z,100419.06
2022-08-18T07:02:22.888Z,100422.66
2022-08-18T07:05:14.480Z,100421.06
2022-08-18T07:07:43.260Z,100420.72
2022-08-18T07:10:13.885Z,100426.72
2022-08-18T07:12:42.205Z,100423.16
2022-08-18T07:15:27.507Z,100421.97
2022-08-18T07:17:55.953Z,100435.19
2022-08-18T07:20:25.797Z,100425.56
2022-08-18T07:23:00.214Z,100442.06
2022-08-18T07:25:42.114Z,100431.19
2022-08-18T07:28:39.792Z,100444.03
2022-08-18T07:31:42.799Z,100441.22
2022-08-18T07:34:25.405Z,100446.13
2022-08-18T07:37:03.375Z,100444.56
2022-08-18T07:40:06.122Z,100454.22
2022-08-18T07:43:00.647Z,100444.16
2022-08-18T07:45:33.641Z,68092.72
2022-08-18T07:48:38.206Z,68092.72
2022-08-18T07:51:35.166Z,68092.72
2022-08-18T07:54:48.893Z,68092.72
2022-08-18T07:57:56.545Z,68092.72
2022-08-18T08:00:57.570Z,68092.72
2022-08-18T08:04:25.543Z,68092.72
2022-08-18T08:07:23.459Z,68092.72
2022-08-18T08:09:58.733Z,68092.72
2022-08-18T08:12:37.018Z,68092.72
2022-08-18T08:15:53.286Z,100445.81
2022-08-18T08:18:36.439Z,100452.66
2022-08-18T08:21:15.566Z,100456.28
2022-08-18T08:23:55.973Z,100449.81
2022-08-18T08:26:49.121Z,100454.66
2022-08-18T08:30:03.007Z,100464.28
2022-08-18T08:32:39.273Z,100469.13
2022-08-18T08:35:49.274Z,100470.81
2022-08-18T08:38:44.460Z,100467.19
2022-08-18T08:41:26.099Z,100474.88
2022-08-18T08:44:11.344Z,100470.81
2022-08-18T08:46:52.312Z,100476.44
2022-08-18T08:49:35.902Z,100470.75
2022-08-18T08:52:10.242Z,100467.56
2022-08-18T08:54:53.680Z,100466.22
2022-08-18T08:57:34.266Z,100471.13
2022-08-18T09:00:06.612Z,100471.38
2022-08-18T09:02:52.917Z,100472.63
2022-08-18T09:05:25.953Z,100485.66
2022-08-18T09:08:23.970Z,100482.78
2022-08-18T09:11:18.753Z,100485.78
2022-08-18T09:14:33.616Z,100477.19
2022-08-18T09:17:33.913Z,100482.47
2022-08-18T09:20:27.616Z,100476.13
2022-08-18T09:23:10.278Z,100487.06
2022-08-18T09:26:41.240Z,100482.56
2022-08-18T09:29:27.354Z,100487.75
2022-08-18T09:32:24.062Z,100486.25
2022-08-18T09:35:05.516Z,100486.25
2022-08-18T09:38:11.945Z,100491.69
2022-08-18T09:41:11.365Z,68092.72
2022-08-18T09:43:55.510Z,68092.72
2022-08-18T09:49:40.897Z,68092.72
2022-08-18T09:52:24.121Z,68092.72
2022-08-18T09:55:09.570Z,68092.72
2022-08-18T10:00:33.737Z,68092.72
2022-08-18T10:03:11.134Z,68092.72
2022-08-18T10:05:40.049Z,68092.72
2022-08-18T10:08:37.009Z,68092.72
2022-08-18T10:11:41.055Z,68092.72
2022-08-18T10:14:35.420Z,68092.72
2022-08-18T10:17:53.856Z,68092.72
2022-08-18T10:20:42.708Z,100459.34
2022-08-18T10:23:10.371Z,100459.78
2022-08-18T10:25:47.503Z,100471.06
2022-08-18T10:29:37.903Z,100470.72
2022-08-18T10:32:08.181Z,100471.28
2022-08-18T10:37:39.851Z,100479.59
2022-08-18T10:40:13.660Z,100472.06
2022-08-18T10:43:26.720Z,100477.41
2022-08-18T10:46:23.719Z,100464.06
2022-08-18T10:48:42.143Z,100479.66
2022-08-18T10:51:30.774Z,100483.69
2022-08-18T10:54:29.839Z,100491.09
2022-08-18T10:57:28.714Z,100491.09
2022-08-18T11:00:19.783Z,100489.13
2022-08-18T11:03:02.447Z,100479.88
2022-08-18T11:05:42.881Z,100473.22
2022-08-18T11:08:17.202Z,100479.19
2022-08-18T11:11:24.867Z,100478.63
2022-08-18T11:14:01.275Z,100470.97
2022-08-18T11:17:51.785Z,100475.47
2022-08-18T11:20:21.001Z,68092.72
2022-08-18T11:23:00.944Z,68092.72
2022-08-18T11:25:34.673Z,68092.72
2022-08-18T11:28:03.252Z,68092.72
2022-08-18T11:30:37.539Z,68092.72
2022-08-18T11:33:08.025Z,68092.72
2022-08-18T11:35:58.027Z,68092.72
2022-08-18T11:38:29.411Z,68092.72
2022-08-18T11:41:48.101Z,68092.72
2022-08-18T11:44:25.364Z,68092.72
2022-08-18T11:46:57.414Z,100464.41
2022-08-18T11:49:36.575Z,100464.59
2022-08-18T11:52:30.977Z,100463.53
2022-08-18T11:55:14.391Z,100461.31
2022-08-18T11:57:59.039Z,100443.84
2022-08-18T12:00:46.050Z,100450.47
2022-08-18T12:03:31.990Z,100459.94
2022-08-18T12:06:19.061Z,100459.13
2022-08-18T12:09:02.127Z,100453.19
2022-08-18T12:12:01.116Z,100451.34
2022-08-18T12:14:35.280Z,100447.22
2022-08-18T12:17:08.006Z,100450.44
2022-08-18T12:19:36.122Z,100438.94
2022-08-18T12:22:19.080Z,100439.47
2022-08-18T12:24:48.496Z,100433.59
2022-08-18T12:27:21.439Z,100436.75
2022-08-18T12:29:55.729Z,100433.97
2022-08-18T12:32:41.803Z,100434.91
2022-08-18T12:35:15.753Z,100431.56
2022-08-18T12:38:13.805Z,100435.34
2022-08-18T12:40:38.140Z,100428.25
2022-08-18T12:43:06.690Z,100432.91
2022-08-18T12:45:37.558Z,100423.56
2022-08-18T12:48:07.778Z,100415.25
2022-08-18T12:50:49.715Z,100403.19
2022-08-18T12:53:29.043Z,100403.72
2022-08-18T12:55:58.840Z,100385.00
2022-08-18T12:58:28.234Z,100369.22
2022-08-18T13:00:56.660Z,100367.47
2022-08-18T13:03:42.543Z,100371.00
2022-08-18T13:06:15.353Z,100365.59
2022-08-18T13:08:49.993Z,100373.31
2022-08-18T13:11:24.909Z,100380.38
2022-08-18T13:13:56.063Z,100380.88
2022-08-18T13:16:54.206Z,100382.94
2022-08-18T13:19:22.922Z,100370.13
2022-08-18T13:21:51.814Z,100374.72
2022-08-18T13:24:21.219Z,100368.91
2022-08-18T13:26:51.719Z,100371.28
2022-08-18T13:29:21.000Z,100370.94
2022-08-18T13:31:57.745Z,100378.91
2022-08-18T13:34:29.970Z,100393.41
2022-08-18T13:36:58.592Z,100395.94
2022-08-18T13:39:33.617Z,100395.94
2022-08-18T13:42:21.583Z,100398.66
2022-08-18T13:44:53.230Z,100396.69
2022-08-18T13:47:28.340Z,100393.94
2022-08-18T13:49:58.521Z,100400.00
2022-08-18T13:52:36.200Z,100398.38
2022-08-18T13:55:16.799Z,100386.59
2022-08-18T13:57:49.987Z,100373.03
2022-08-18T14:00:29.958Z,100376.00
2022-08-18T14:03:02.038Z,100380.59
2022-08-18T14:05:36.171Z,100378.28
2022-08-18T14:08:19.673Z,100379.69
2022-08-18T14:10:50.763Z,100381.78
2022-08-18T14:13:20.524Z,100371.38
2022-08-18T14:15:56.186Z,100378.91
2022-08-18T14:18:29.123Z,100385.66
2022-08-18T14:21:23.202Z,100378.47
2022-08-18T14:24:10.508Z,100374.97
2022-08-18T14:26:49.960Z,100378.41
2022-08-18T14:29:45.433Z,100382.94
2022-08-18T14:32:07.486Z,100376.34
2022-08-18T14:34:35.876Z,100384.81
2022-08-18T14:37:03.923Z,100386.16
2022-08-18T14:39:31.724Z,100383.41
2022-08-18T14:42:04.333Z,100388.38
2022-08-18T14:44:34.566Z,100379.28
2022-08-18T14:47:02.568Z,100395.03
2022-08-18T14:49:31.115Z,100386.94
2022-08-18T14:52:01.148Z,100379.81
2022-08-18T14:54:31.066Z,100378.59
2022-08-18T14:57:03.940Z,100386.69
2022-08-18T14:59:37.488Z,100384.81
2022-08-18T15:02:13.077Z,100380.13
2022-08-18T15:04:55.819Z,100381.63
2022-08-18T15:07:26.464Z,100368.25
2022-08-18T15:10:15.622Z,100362.56
2022-08-18T15:13:10.343Z,100363.69
2022-08-18T15:15:42.427Z,100353.84
2022-08-18T15:18:22.559Z,100354.19
2022-08-18T15:21:34.691Z,100363.44
2022-08-18T15:24:20.292Z,100363.69
2022-08-18T15:26:51.575Z,100363.53
2022-08-18T15:29:47.906Z,100367.66
2022-08-18T15:32:18.758Z,100357.47
2022-08-18T15:34:51.170Z,100358.94
2022-08-18T15:37:22.318Z,100357.78
2022-08-18T15:40:30.446Z,100362.81
2022-08-18T15:43:01.520Z,100363.34
2022-08-18T15:45:35.531Z,100369.94
2022-08-18T15:48:04.171Z,100367.56
2022-08-18T15:50:32.186Z,100356.13
2022-08-18T15:53:07.934Z,100358.72
2022-08-18T15:55:40.122Z,100362.06
2022-08-18T15:58:11.074Z,100364.63
2022-08-18T16:00:46.126Z,100363.56
2022-08-18T16:03:21.126Z,100364.44
2022-08-18T16:05:54.677Z,100353.84
2022-08-18T16:08:24.815Z,100350.13
2022-08-18T16:10:53.711Z,100362.94
2022-08-18T16:13:29.103Z,100371.31
2022-08-18T16:15:57.262Z,100369.88
2022-08-18T16:18:30.291Z,100351.94
2022-08-18T16:21:05.952Z,100342.09
2022-08-18T16:23:33.718Z,100354.72
2022-08-18T16:26:06.006Z,100360.72
2022-08-18T16:28:35.248Z,100356.78
2022-08-18T16:31:04.032Z,100368.47
2022-08-18T16:33:32.024Z,100364.00
2022-08-18T16:36:07.953Z,100362.06
2022-08-18T16:38:38.207Z,100362.13
2022-08-18T16:41:14.068Z,100350.09
2022-08-18T16:43:44.596Z,100350.31
2022-08-18T16:46:27.182Z,100346.56
2022-08-18T16:48:57.368Z,100348.16
2022-08-18T16:51:31.448Z,100347.31
2022-08-18T16:53:59.741Z,100340.59
2022-08-18T16:56:30.900Z,100344.19
2022-08-18T16:59:17.155Z,100350.94
2022-08-18T17:02:03.525Z,100355.97
2022-08-18T17:04:33.756Z,100354.13
2022-08-18T17:07:04.783Z,100352.09
2022-08-18T17:09:57.919Z,100349.81
2022-08-18T17:12:26.636Z,68092.72
2022-08-18T17:14:55.727Z,68092.72
2022-08-18T17:17:24.932Z,100349.81
2022-08-18T17:19:53.937Z,100348.50
2022-08-18T17:22:21.610Z,100350.84
2022-08-18T17:24:50.582Z,100350.84
2022-08-18T17:27:27.701Z,100341.78
2022-08-18T17:30:13.727Z,100347.59
2022-08-18T17:32:55.668Z,100343.78
2022-08-18T17:35:28.967Z,100341.31
2022-08-18T17:38:44.845Z,100340.44
2022-08-18T17:41:13.225Z,100337.06
2022-08-18T17:46:29.887Z,100345.75
2022-08-18T17:49:16.190Z,100351.63
2022-08-18T17:51:55.118Z,100345.50
2022-08-18T17:54:29.793Z,100354.72
2022-08-18T17:57:15.096Z,100354.72
2022-08-18T17:59:57.933Z,100350.88
2022-08-18T18:02:31.052Z,100350.88
2022-08-18T18:05:04.402Z,100350.63
2022-08-18T18:07:38.388Z,100360.25
2022-08-18T18:10:14.131Z,100358.13
2022-08-18T18:12:42.057Z,100358.13
2022-08-18T18:15:13.269Z,68092.72
2022-08-18T18:17:43.358Z,100359.31
2022-08-18T18:20:15.975Z,100362.75
2022-08-18T18:22:45.032Z,100364.13
2022-08-18T18:25:13.985Z,100354.59
2022-08-18T18:27:44.163Z,100362.13
2022-08-18T18:30:27.965Z,100361.19
2022-08-18T18:32:59.137Z,100357.38
2022-08-18T18:35:53.451Z,100369.09
2022-08-18T18:38:36.590Z,100365.53
2022-08-18T18:41:12.129Z,100370.78
2022-08-18T18:43:46.782Z,100361.38
2022-08-18T18:47:11.592Z,100374.59
2022-08-18T18:49:43.955Z,100377.81
2022-08-18T18:52:37.014Z,100384.00
2022-08-18T18:55:07.495Z,100385.81
2022-08-18T18:58:15.259Z,100382.19
2022-08-18T19:00:54.337Z,100392.16
2022-08-18T19:03:27.850Z,100385.34
2022-08-18T19:06:05.591Z,100396.00
2022-08-18T19:08:57.836Z,100395.69
2022-08-18T19:11:57.509Z,100394.13
2022-08-18T19:14:42.311Z,100393.06
2022-08-18T19:17:34.305Z,100393.66
2022-08-18T19:20:19.211Z,100405.19
2022-08-18T19:23:04.553Z,100405.66
2022-08-18T19:25:44.320Z,100408.09
2022-08-18T19:28:31.340Z,100414.25
2022-08-18T19:31:14.118Z,100413.94
2022-08-18T19:33:56.847Z,100420.94
2022-08-18T19:36:44.838Z,100414.59
2022-08-18T19:39:21.611Z,100416.28
2022-08-18T19:42:10.960Z,100411.00
2022-08-18T19:45:16.754Z,100414.34
2022-08-18T19:48:03.190Z,100418.84
2022-08-18T19:50:34.748Z,100415.28
2022-08-18T19:53:32.292Z,100414.09
2022-08-18T19:56:09.528Z,100409.31
2022-08-18T19:59:18.092Z,100406.91
2022-08-18T20:01:51.935Z,100414.25
2022-08-18T20:04:39.379Z,100404.97
2022-08-18T20:07:47.060Z,100412.66
2022-08-18T20:10:27.713Z,100412.66
2022-08-18T20:13:15.593Z,100410.22
2022-08-18T20:16:10.793Z,100413.94
2022-08-18T20:18:49.568Z,100407.91
2022-08-18T20:21:17.253Z,100415.56
2022-08-18T20:24:07.212Z,100404.66
2022-08-18T20:26:35.165Z,100403.84
2022-08-18T20:29:03.472Z,100400.66
2022-08-18T20:31:49.313Z,100403.06
2022-08-18T20:34:23.237Z,100395.00
2022-08-18T20:36:52.643Z,100399.03
2022-08-18T20:39:38.817Z,100402.69
2022-08-18T20:42:20.561Z,100395.84
2022-08-18T20:44:48.539Z,100396.66
2022-08-18T20:47:38.407Z,100403.50
2022-08-18T20:50:46.031Z,100403.91
2022-08-18T20:53:37.036Z,100403.91
2022-08-18T20:56:32.019Z,100403.06
2022-08-18T20:59:19.915Z,100401.50
2022-08-18T21:02:26.368Z,100406.28
2022-08-18T21:04:57.736Z,100413.16
2022-08-18T21:07:37.850Z,100411.53
2022-08-18T21:10:20.772Z,100428.84
2022-08-18T21:12:54.401Z,100424.78
2022-08-18T21:15:37.242Z,100431.59
2022-08-18T21:18:21.269Z,100436.44
2022-08-18T21:20:50.920Z,100430.34
2022-08-18T21:23:37.558Z,100435.19
2022-08-18T21:26:12.415Z,100435.56
2022-08-18T21:28:45.536Z,100431.91
2022-08-18T21:31:42.083Z,100437.47
2022-08-18T21:34:18.461Z,100437.88
2022-08-18T21:36:52.366Z,100449.09
2022-08-18T21:39:21.029Z,100451.06
2022-08-18T21:41:53.747Z,100444.63
2022-08-18T21:44:23.725Z,100440.56
2022-08-18T21:46:52.056Z,100451.38
2022-08-18T21:49:26.460Z,100448.94
2022-08-18T21:51:54.646Z,100454.13
2022-08-18T21:54:25.360Z,100448.44
2022-08-18T21:57:25.743Z,100457.25
2022-08-18T22:00:20.491Z,100451.59
2022-08-18T22:03:07.858Z,100457.94
2022-08-18T22:05:55.896Z,100460.69
2022-08-18T22:08:29.372Z,100449.00
2022-08-18T22:12:01.122Z,100463.44
2022-08-18T22:14:54.044Z,100461.00
2022-08-18T22:17:28.532Z,100463.00
2022-08-18T22:20:48.996Z,100469.75
2022-08-18T22:23:44.957Z,100468.53
2022-08-18T22:26:16.102Z,100480.53
2022-08-18T22:28:58.736Z,100460.81
2022-08-18T22:31:40.605Z,100471.63
2022-08-18T22:34:28.030Z,100468.78
2022-08-18T22:37:01.872Z,100465.13
2022-08-18T22:39:40.915Z,100473.53
2022-08-18T22:42:09.611Z,100473.50
2022-08-18T22:44:38.015Z,100473.44
2022-08-18T22:47:06.828Z,100475.03
2022-08-18T22:49:36.818Z,100477.41
2022-08-18T22:52:08.125Z,100480.56
2022-08-18T22:54:35.934Z,100471.63
2022-08-18T22:57:04.343Z,100482.09
2022-08-18T22:59:35.306Z,100479.63
2022-08-18T23:02:03.358Z,100478.38
2022-08-18T23:04:31.286Z,100477.16
2022-08-18T23:07:00.400Z,100475.88
2022-08-18T23:09:31.451Z,100467.44
2022-08-18T23:12:07.276Z,100475.41
2022-08-18T23:14:35.580Z,100471.34
2022-08-18T23:17:05.183Z,100460.53
2022-08-18T23:19:33.483Z,100463.25
2022-08-18T23:22:02.827Z,100475.28
2022-08-18T23:24:31.041Z,100471.59
2022-08-18T23:26:59.746Z,100474.78
2022-08-18T23:29:32.393Z,100473.56
2022-08-18T23:32:00.019Z,100470.72
2022-08-18T23:34:28.150Z,100459.88
2022-08-18T23:37:03.027Z,100460.63
2022-08-18T23:39:33.403Z,100464.63
2022-08-18T23:42:03.092Z,100459.00
2022-08-18T23:44:33.036Z,100467.38
2022-08-18T23:47:00.737Z,100470.13
2022-08-18T23:49:30.432Z,100470.09
2022-08-18T23:51:59.299Z,100478.91
2022-08-18T23:54:34.202Z,100486.06
2022-08-18T23:57:02.540Z,100478.84
2022-08-18T23:59:30.331Z,100476.41
